Wetterdaten: Woche 17.05.21 - 23.05.21 (KW20)
Datum Zeit Temp. Aussen Temp. o. S. Temp +5cm Feuchte Auss Luftdruck Regen Sonnenschein Regendauer Solar Windben Empfang
17.05.2021 00:00 10,1 C 9,3 C 7,3 C 93 % 1001,2 hPa 0,0 l/m 0,00 h 0,00 h 0 W/m 4,4 km/h (1 Bft) 93,41 %
17.05.2021 01:00 9,8 C 8,9 C 7,4 C 94 % 1001,2 hPa 0,0 l/m 0,00 h 0,03 h 0 W/m 7,0 km/h (2 Bft) 98,01 %
17.05.2021 02:00 9,9 C 9,3 C 7,8 C 95 % 1001,2 hPa 0,0 l/m 0,00 h 0,20 h 0 W/m 9,1 km/h (2 Bft) 97,87 %
17.05.2021 03:00 10,0 C 9,4 C 7,8 C 95 % 1001,2 hPa 0,0 l/m 0,00 h 0,07 h 0 W/m 9,2 km/h (2 Bft) 98,29 %
17.05.2021 04:00 9,9 C 9,4 C 8,1 C 95 % 1001,3 hPa 0,0 l/m 0,00 h 0,00 h 0 W/m 8,1 km/h (2 Bft) 97,15 %
17.05.2021 05:00 9,9 C 9,4 C 8,2 C 94 % 1001,4 hPa 0,0 l/m 0,00 h 0,00 h 8 W/m 7,5 km/h (2 Bft) 95,97 %
17.05.2021 06:00 10,0 C 9,7 C 8,6 C 95 % 1001,7 hPa 0,2 l/m 0,00 h 0,00 h 36 W/m 9,0 km/h (2 Bft) 94,26 %
17.05.2021 07:00 10,9 C 10,9 C 9,6 C 93 % 1001,9 hPa 0,0 l/m 0,17 h 0,00 h 97 W/m 16,7 km/h (3 Bft) 99,57 %
17.05.2021 08:00 11,7 C 11,6 C 10,1 C 89 % 1002,1 hPa 0,0 l/m 0,00 h 0,00 h 108 W/m 16,9 km/h (3 Bft) 91,83 %
17.05.2021 09:00 12,3 C 12,4 C 10,8 C 85 % 1002,4 hPa 0,0 l/m 0,07 h 0,00 h 176 W/m 20,1 km/h (4 Bft) 97,61 %
17.05.2021 10:00 12,6 C 12,5 C 10,4 C 85 % 1002,5 hPa 0,2 l/m 0,10 h 0,17 h 221 W/m 24,0 km/h (4 Bft) 97,54 %
17.05.2021 11:00 13,9 C 15,0 C 12,9 C 82 % 1002,4 hPa 0,0 l/m 0,43 h 0,00 h 491 W/m 26,1 km/h (4 Bft) 97,29 %
17.05.2021 12:00 13,6 C 13,4 C 11,4 C 85 % 1002,5 hPa 0,4 l/m 0,10 h 0,23 h 316 W/m 23,9 km/h (4 Bft) 98,02 %
17.05.2021 13:00 13,6 C 13,9 C 13,2 C 85 % 1002,7 hPa 0,0 l/m 0,33 h 0,53 h 437 W/m 29,1 km/h (5 Bft) 97,07 %
17.05.2021 14:00 13,0 C 13,5 C 11,6 C 91 % 1002,8 hPa 0,0 l/m 0,20 h 0,37 h 302 W/m 25,1 km/h (4 Bft) 97,07 %
17.05.2021 15:00 13,4 C 13,3 C 10,5 C 92 % 1003,2 hPa 0,8 l/m 0,13 h 0,47 h 231 W/m 17,2 km/h (3 Bft) 98,86 %
17.05.2021 16:00 13,9 C 14,8 C 11,1 C 91 % 1004,1 hPa 0,0 l/m 0,37 h 0,17 h 319 W/m 23,2 km/h (4 Bft) 93,17 %
17.05.2021 17:00 14,3 C 14,8 C 12,2 C 85 % 1005,2 hPa 0,0 l/m 0,33 h 0,00 h 279 W/m 21,8 km/h (4 Bft) 99,10 %
17.05.2021 18:00 14,3 C 14,8 C 12,1 C 82 % 1006,1 hPa 0,0 l/m 0,47 h 0,00 h 223 W/m 20,3 km/h (4 Bft) 97,09 %
17.05.2021 19:00 14,0 C 13,5 C 11,3 C 81 % 1006,9 hPa 0,0 l/m 0,00 h 0,00 h 79 W/m 16,8 km/h (3 Bft) 84,69 %
17.05.2021 20:00 13,3 C 12,6 C 10,5 C 80 % 1007,8 hPa 0,0 l/m 0,17 h 0,00 h 40 W/m 15,1 km/h (3 Bft) 98,36 %
17.05.2021 21:00 12,0 C 11,1 C 9,2 C 83 % 1008,7 hPa 0,0 l/m 0,00 h 0,00 h 8 W/m 9,6 km/h (2 Bft) 97,15 %
17.05.2021 22:00 11,0 C 10,0 C 8,3 C 85 % 1009,2 hPa 0,0 l/m 0,00 h 0,00 h 0 W/m 5,9 km/h (2 Bft) 95,55 %
17.05.2021 23:00 10,0 C 8,9 C 7,4 C 88 % 1009,6 hPa 0,0 l/m 0,00 h 0,00 h 0 W/m 2,7 km/h (1 Bft) 97,57 %
18.05.2021 00:00 9,5 C 8,8 C 7,4 C 90 % 1010,2 hPa 0,0 l/m 0,00 h 0,00 h 0 W/m 2,9 km/h (1 Bft) 97,13 %
18.05.2021 01:00 9,7 C 9,1 C 7,7 C 91 % 1010,5 hPa 0,0 l/m 0,00 h 0,00 h 0 W/m 1,2 km/h (1 Bft) 95,51 %
18.05.2021 02:00 9,8 C 9,4 C 7,9 C 91 % 1010,6 hPa 0,2 l/m 0,00 h 0,07 h 0 W/m 3,4 km/h (1 Bft) 98,72 %
18.05.2021 03:00 10,0 C 9,0 C 7,3 C 94 % 1010,6 hPa 1,4 l/m 0,00 h 0,48 h 0 W/m 7,6 km/h (2 Bft) 97,85 %
18.05.2021 04:00 9,9 C 8,9 C 7,4 C 97 % 1010,8 hPa 1,2 l/m 0,00 h 0,77 h 0 W/m 5,6 km/h (1 Bft) 97,08 %
18.05.2021 05:00 9,6 C 8,9 C 7,3 C 98 % 1010,9 hPa 2,0 l/m 0,00 h 0,47 h 3 W/m 6,0 km/h (2 Bft) 95,21 %
18.05.2021 06:00 9,7 C 9,0 C 7,8 C 98 % 1011,1 hPa 0,2 l/m 0,00 h 0,13 h 22 W/m 7,5 km/h (2 Bft) 98,23 %
18.05.2021 07:00 10,0 C 9,6 C 8,4 C 98 % 1011,4 hPa 0,0 l/m 0,00 h 0,60 h 57 W/m 6,2 km/h (2 Bft) 97,44 %
18.05.2021 08:00 10,5 C 10,2 C 8,8 C 99 % 1011,8 hPa 0,0 l/m 0,00 h 0,00 h 85 W/m 5,8 km/h (2 Bft) 97,51 %
18.05.2021 09:00 11,3 C 12,1 C 9,9 C 97 % 1012,3 hPa 0,0 l/m 0,37 h 0,00 h 254 W/m 9,9 km/h (2 Bft) 99,65 %
18.05.2021 10:00 12,9 C 14,1 C 11,4 C 89 % 1012,3 hPa 0,0 l/m 0,60 h 0,07 h 444 W/m 14,8 km/h (3 Bft) 96,87 %
18.05.2021 11:00 13,9 C 15,2 C 13,1 C 83 % 1012,3 hPa 0,0 l/m 0,80 h 0,00 h 685 W/m 16,7 km/h (3 Bft) 95,71 %
18.05.2021 12:00 16,0 C 17,5 C 19,7 C 72 % 1012,3 hPa 0,0 l/m 1,00 h 0,00 h 817 W/m 17,9 km/h (3 Bft) 96,13 %
18.05.2021 13:00 17,2 C 18,2 C 20,0 C 66 % 1012,3 hPa 0,0 l/m 0,70 h 0,03 h 668 W/m 14,9 km/h (3 Bft) 98,15 %
18.05.2021 14:00 15,0 C 15,4 C 12,8 C 73 % 1012,8 hPa 0,0 l/m 0,37 h 0,33 h 380 W/m 19,1 km/h (3 Bft) 91,94 %
18.05.2021 15:00 16,6 C 18,7 C 13,9 C 65 % 1012,7 hPa 0,0 l/m 0,73 h 0,00 h 669 W/m 15,1 km/h (3 Bft) 93,94 %
18.05.2021 16:00 16,7 C 18,0 C 14,0 C 65 % 1012,7 hPa 0,0 l/m 0,43 h 0,07 h 375 W/m 12,7 km/h (3 Bft) 98,07 %
18.05.2021 17:00 13,5 C 12,1 C 8,7 C 81 % 1013,0 hPa 5,2 l/m 0,20 h 0,60 h 149 W/m 9,1 km/h (2 Bft) 96,08 %
18.05.2021 18:00 13,7 C 14,3 C 9,9 C 87 % 1013,2 hPa 0,0 l/m 0,10 h 0,10 h 123 W/m 1,7 km/h (1 Bft) 97,74 %
18.05.2021 19:00 13,8 C 13,3 C 10,0 C 87 % 1013,6 hPa 0,0 l/m 0,07 h 0,33 h 77 W/m 1,1 km/h (0 Bft) 97,87 %
18.05.2021 20:00 13,3 C 12,5 C 9,5 C 88 % 1014,1 hPa 0,0 l/m 0,17 h 0,00 h 39 W/m 1,8 km/h (1 Bft) 99,44 %
18.05.2021 21:00 12,4 C 11,5 C 8,9 C 89 % 1014,6 hPa 0,0 l/m 0,07 h 0,00 h 11 W/m 2,7 km/h (1 Bft) 92,88 %
18.05.2021 22:00 11,6 C 10,4 C 8,4 C 91 % 1015,2 hPa 0,0 l/m 0,00 h 0,00 h 0 W/m 2,0 km/h (1 Bft) 96,73 %
18.05.2021 23:00 10,6 C 8,9 C 7,4 C 93 % 1015,6 hPa 0,0 l/m 0,00 h 0,00 h 0 W/m 0,1 km/h (0 Bft) 96,73 %
19.05.2021 00:00 9,6 C 8,0 C 6,7 C 94 % 1015,9 hPa 0,0 l/m 0,00 h 0,00 h 0 W/m 0,0 km/h (0 Bft) 96,76 %
19.05.2021 01:00 8,9 C 7,8 C 6,3 C 96 % 1016,0 hPa 0,2 l/m 0,00 h 0,00 h 0 W/m 0,3 km/h (0 Bft) 97,07 %
19.05.2021 02:00 8,4 C 7,5 C 6,1 C 96 % 1016,0 hPa 0,0 l/m 0,00 h 0,00 h 0 W/m 0,1 km/h (0 Bft) 97,64 %
19.05.2021 03:00 8,0 C 7,3 C 6,1 C 97 % 1015,9 hPa 0,0 l/m 0,00 h 0,00 h 0 W/m 0,0 km/h (0 Bft) 99,07 %
19.05.2021 04:00 7,8 C 6,9 C 5,8 C 97 % 1015,9 hPa 0,0 l/m 0,00 h 0,00 h 0 W/m 0,2 km/h (0 Bft) 97,52 %
19.05.2021 05:00 8,1 C 7,7 C 6,4 C 97 % 1016,0 hPa 0,0 l/m 0,00 h 0,00 h 8 W/m 3,1 km/h (1 Bft) 98,36 %
19.05.2021 06:00 8,2 C 8,0 C 6,8 C 97 % 1016,3 hPa 0,0 l/m 0,00 h 0,00 h 42 W/m 6,2 km/h (2 Bft) 98,49 %
19.05.2021 07:00 9,0 C 9,0 C 7,7 C 96 % 1016,5 hPa 0,0 l/m 0,07 h 0,00 h 88 W/m 10,1 km/h (2 Bft) 96,38 %
19.05.2021 08:00 10,2 C 11,9 C 9,1 C 93 % 1016,7 hPa 0,0 l/m 0,73 h 0,00 h 297 W/m 10,0 km/h (2 Bft) 95,15 %
19.05.2021 09:00 11,9 C 13,2 C 11,5 C 87 % 1016,9 hPa 0,0 l/m 0,33 h 0,00 h 267 W/m 12,1 km/h (2 Bft) 93,28 %
19.05.2021 10:00 11,9 C 12,1 C 10,2 C 87 % 1017,1 hPa 0,0 l/m 0,10 h 0,30 h 246 W/m 15,5 km/h (3 Bft) 95,09 %
19.05.2021 11:00 13,3 C 14,9 C 13,4 C 83 % 1016,8 hPa 0,0 l/m 0,97 h 0,00 h 497 W/m 15,5 km/h (3 Bft) 98,63 %
19.05.2021 12:00 15,7 C 17,6 C 22,4 C 74 % 1016,4 hPa 0,0 l/m 0,90 h 0,00 h 916 W/m 14,0 km/h (3 Bft) 97,09 %
19.05.2021 13:00 14,9 C 15,4 C 13,3 C 79 % 1016,3 hPa 1,0 l/m 0,60 h 0,33 h 538 W/m 17,3 km/h (3 Bft) 97,87 %
19.05.2021 14:00 15,9 C 17,5 C 11,7 C 73 % 1016,1 hPa 0,0 l/m 0,67 h 0,00 h 622 W/m 13,9 km/h (3 Bft) 98,65 %
19.05.2021 15:00 13,1 C 11,7 C 9,1 C 84 % 1016,5 hPa 2,8 l/m 0,00 h 0,70 h 99 W/m 17,2 km/h (3 Bft) 96,05 %
19.05.2021 16:00 12,1 C 12,7 C 9,3 C 93 % 1016,9 hPa 0,0 l/m 0,37 h 0,00 h 301 W/m 9,8 km/h (2 Bft) 98,44 %
19.05.2021 17:00 12,9 C 13,3 C 9,6 C 90 % 1016,9 hPa 0,0 l/m 0,30 h 0,07 h 243 W/m 5,6 km/h (1 Bft) 97,42 %
19.05.2021 18:00 14,0 C 16,1 C 10,3 C 86 % 1016,9 hPa 0,0 l/m 0,67 h 0,00 h 283 W/m 6,1 km/h (2 Bft) 98,20 %
19.05.2021 19:00 13,8 C 13,3 C 9,8 C 83 % 1017,0 hPa 0,0 l/m 0,07 h 0,00 h 75 W/m 3,7 km/h (1 Bft) 97,51 %
19.05.2021 20:00 12,4 C 11,0 C 8,9 C 88 % 1017,7 hPa 1,8 l/m 0,00 h 0,50 h 17 W/m 6,9 km/h (2 Bft) 96,87 %
19.05.2021 21:00 11,1 C 10,0 C 8,0 C 94 % 1018,4 hPa 0,0 l/m 0,00 h 0,13 h 0 W/m 1,5 km/h (1 Bft) 97,73 %
19.05.2021 22:00 10,7 C 9,7 C 7,8 C 96 % 1018,8 hPa 0,0 l/m 0,00 h 0,00 h 0 W/m 1,5 km/h (1 Bft) 98,76 %
19.05.2021 23:00 10,0 C 8,8 C 7,3 C 96 % 1019,1 hPa 0,0 l/m 0,00 h 0,00 h 0 W/m 0,2 km/h (0 Bft) 96,87 %
20.05.2021 00:00 9,3 C 8,2 C 6,8 C 97 % 1019,5 hPa 0,2 l/m 0,00 h 0,00 h 0 W/m 0,4 km/h (0 Bft) 97,15 %
20.05.2021 01:00 8,9 C 7,9 C 6,7 C 97 % 1019,8 hPa 0,0 l/m 0,00 h 0,00 h 0 W/m 1,2 km/h (1 Bft) 94,17 %
20.05.2021 02:00 9,0 C 8,3 C 7,0 C 98 % 1020,1 hPa 0,0 l/m 0,00 h 0,00 h 0 W/m 2,5 km/h (1 Bft) 96,17 %
20.05.2021 03:00 8,8 C 8,0 C 6,7 C 98 % 1020,4 hPa 0,0 l/m 0,00 h 0,00 h 0 W/m 2,3 km/h (1 Bft) 95,59 %
20.05.2021 04:00 8,2 C 7,2 C 6,1 C 98 % 1020,6 hPa 0,0 l/m 0,00 h 0,00 h 0 W/m 1,4 km/h (1 Bft) 98,49 %
20.05.2021 05:00 7,7 C 6,7 C 5,7 C 98 % 1020,8 hPa 0,0 l/m 0,00 h 0,00 h 8 W/m 0,6 km/h (0 Bft) 99,06 %
20.05.2021 06:00 7,8 C 7,3 C 6,4 C 99 % 1021,1 hPa 0,0 l/m 0,00 h 0,00 h 23 W/m 2,5 km/h (1 Bft) 97,13 %
20.05.2021 07:00 8,2 C 7,8 C 6,8 C 99 % 1021,4 hPa 0,0 l/m 0,00 h 0,00 h 49 W/m 3,8 km/h (1 Bft) 97,93 %
20.05.2021 08:00 8,6 C 8,5 C 7,4 C 100 % 1021,6 hPa 0,0 l/m 0,00 h 0,00 h 86 W/m 8,4 km/h (2 Bft) 98,50 %
20.05.2021 09:00 9,4 C 9,8 C 8,4 C 99 % 1021,9 hPa 0,0 l/m 0,00 h 0,00 h 165 W/m 8,6 km/h (2 Bft) 96,85 %
20.05.2021 10:00 10,8 C 11,9 C 10,3 C 97 % 1021,9 hPa 0,0 l/m 0,23 h 0,00 h 266 W/m 11,8 km/h (2 Bft) 96,51 %
20.05.2021 11:00 13,0 C 15,4 C 13,9 C 84 % 1021,4 hPa 0,0 l/m 0,57 h 0,00 h 592 W/m 9,0 km/h (2 Bft) 99,00 %
20.05.2021 12:00 15,7 C 17,9 C 20,5 C 74 % 1020,9 hPa 0,0 l/m 0,63 h 0,00 h 673 W/m 12,1 km/h (2 Bft) 96,50 %
20.05.2021 13:00 17,0 C 19,1 C 22,7 C 65 % 1020,1 hPa 0,0 l/m 0,83 h 0,00 h 816 W/m 17,5 km/h (3 Bft) 96,65 %
20.05.2021 14:00 17,5 C 19,3 C 16,1 C 61 % 1019,3 hPa 0,0 l/m 0,80 h 0,00 h 610 W/m 16,6 km/h (3 Bft) 96,94 %
20.05.2021 15:00 17,7 C 18,7 C 15,9 C 60 % 1018,4 hPa 0,0 l/m 1,00 h 0,00 h 456 W/m 15,6 km/h (3 Bft) 97,25 %
20.05.2021 16:00 17,3 C 17,7 C 15,2 C 61 % 1017,7 hPa 0,0 l/m 0,33 h 0,00 h 305 W/m 16,7 km/h (3 Bft) 98,86 %
20.05.2021 17:00 16,8 C 16,7 C 14,3 C 63 % 1017,3 hPa 0,0 l/m 0,00 h 0,00 h 181 W/m 14,3 km/h (3 Bft) 93,89 %
20.05.2021 18:00 16,2 C 15,9 C 13,4 C 64 % 1016,5 hPa 0,0 l/m 0,00 h 0,00 h 125 W/m 15,4 km/h (3 Bft) 97,84 %
20.05.2021 19:00 15,7 C 15,0 C 12,8 C 66 % 1015,3 hPa 0,0 l/m 0,00 h 0,00 h 62 W/m 12,6 km/h (3 Bft) 99,14 %
20.05.2021 20:00 15,4 C 14,7 C 12,3 C 65 % 1014,6 hPa 0,0 l/m 0,00 h 0,00 h 28 W/m 12,9 km/h (3 Bft) 94,37 %
20.05.2021 21:00 14,9 C 14,1 C 11,6 C 66 % 1014,0 hPa 0,0 l/m 0,00 h 0,00 h 9 W/m 9,4 km/h (2 Bft) 98,43 %
20.05.2021 22:00 14,4 C 13,9 C 11,1 C 67 % 1013,3 hPa 0,0 l/m 0,00 h 0,00 h 0 W/m 12,1 km/h (2 Bft) 98,50 %
20.05.2021 23:00 14,1 C 13,3 C 10,8 C 67 % 1012,2 hPa 0,0 l/m 0,00 h 0,00 h 0 W/m 13,1 km/h (3 Bft) 96,73 %
21.05.2021 00:00 13,8 C 12,8 C 10,6 C 69 % 1011,0 hPa 0,0 l/m 0,00 h 0,00 h 0 W/m 11,7 km/h (2 Bft) 98,07 %
21.05.2021 01:00 13,6 C 12,8 C 10,5 C 71 % 1009,9 hPa 0,0 l/m 0,00 h 0,00 h 0 W/m 13,3 km/h (3 Bft) 96,53 %
21.05.2021 02:00 13,7 C 12,8 C 10,5 C 73 % 1008,7 hPa 0,0 l/m 0,00 h 0,00 h 0 W/m 17,0 km/h (3 Bft) 97,44 %
21.05.2021 03:00 13,6 C 12,8 C 10,3 C 74 % 1007,8 hPa 0,0 l/m 0,00 h 0,00 h 0 W/m 17,4 km/h (3 Bft) 99,36 %
21.05.2021 04:00 13,1 C 12,3 C 9,8 C 75 % 1007,0 hPa 0,0 l/m 0,00 h 0,00 h 0 W/m 12,4 km/h (3 Bft) 95,59 %
21.05.2021 05:00 12,4 C 11,5 C 9,0 C 78 % 1006,3 hPa 0,0 l/m 0,00 h 0,00 h 6 W/m 14,7 km/h (3 Bft) 96,37 %
21.05.2021 06:00 12,2 C 11,5 C 8,9 C 79 % 1005,9 hPa 0,0 l/m 0,00 h 0,00 h 29 W/m 12,3 km/h (3 Bft) 99,33 %
21.05.2021 07:00 12,8 C 12,6 C 9,9 C 78 % 1005,5 hPa 0,0 l/m 0,00 h 0,00 h 67 W/m 20,9 km/h (4 Bft) 96,09 %
21.05.2021 08:00 13,4 C 13,3 C 10,8 C 77 % 1005,2 hPa 0,0 l/m 0,07 h 0,00 h 171 W/m 27,2 km/h (4 Bft) 93,81 %
21.05.2021 09:00 14,5 C 16,3 C 14,0 C 71 % 1005,2 hPa 0,0 l/m 0,70 h 0,00 h 492 W/m 29,1 km/h (5 Bft) 98,50 %
21.05.2021 10:00 15,2 C 16,6 C 16,7 C 64 % 1005,1 hPa 0,0 l/m 0,67 h 0,00 h 577 W/m 34,3 km/h (5 Bft) 96,87 %
21.05.2021 11:00 15,2 C 15,6 C 13,9 C 61 % 1005,2 hPa 0,0 l/m 0,37 h 0,00 h 379 W/m 33,0 km/h (5 Bft) 96,13 %
21.05.2021 12:00 16,0 C 16,9 C 18,2 C 57 % 1005,1 hPa 0,0 l/m 0,70 h 0,00 h 567 W/m 39,2 km/h (6 Bft) 96,98 %
21.05.2021 13:00 17,3 C 18,5 C 22,4 C 53 % 1004,7 hPa 0,0 l/m 0,77 h 0,00 h 813 W/m 39,6 km/h (6 Bft) 98,43 %
21.05.2021 14:00 17,7 C 19,0 C 16,0 C 51 % 1004,3 hPa 0,0 l/m 0,73 h 0,00 h 764 W/m 41,8 km/h (6 Bft) 98,50 %
21.05.2021 15:00 18,1 C 19,1 C 15,8 C 51 % 1004,0 hPa 0,0 l/m 0,53 h 0,00 h 538 W/m 35,0 km/h (5 Bft) 93,82 %
21.05.2021 16:00 18,7 C 21,6 C 16,3 C 48 % 1003,5 hPa 0,0 l/m 0,93 h 0,00 h 750 W/m 42,7 km/h (6 Bft) 98,81 %
21.05.2021 17:00 18,2 C 19,4 C 15,7 C 48 % 1003,0 hPa 0,0 l/m 0,33 h 0,00 h 330 W/m 36,3 km/h (5 Bft) 92,53 %
21.05.2021 18:00 16,5 C 19,7 C 13,7 C 59 % 1002,7 hPa 0,0 l/m 0,90 h 0,13 h 391 W/m 34,8 km/h (5 Bft) 93,27 %
21.05.2021 19:00 16,6 C 16,6 C 13,5 C 59 % 1002,1 hPa 0,2 l/m 0,57 h 0,03 h 159 W/m 25,3 km/h (4 Bft) 93,60 %
21.05.2021 20:00 14,4 C 12,6 C 8,4 C 70 % 1002,0 hPa 0,6 l/m 0,43 h 0,10 h 59 W/m 28,1 km/h (4 Bft) 98,57 %
21.05.2021 21:00 12,9 C 12,0 C 8,0 C 73 % 1002,3 hPa 0,0 l/m 0,00 h 0,00 h 8 W/m 17,9 km/h (3 Bft) 97,23 %
21.05.2021 22:00 12,0 C 10,9 C 8,5 C 79 % 1002,3 hPa 0,0 l/m 0,00 h 0,00 h 0 W/m 6,4 km/h (2 Bft) 97,92 %
21.05.2021 23:00 10,7 C 9,8 C 7,8 C 84 % 1001,9 hPa 0,0 l/m 0,00 h 0,00 h 0 W/m 9,4 km/h (2 Bft) 96,17 %
22.05.2021 00:00 10,4 C 9,6 C 7,8 C 84 % 1002,0 hPa 0,0 l/m 0,00 h 0,00 h 0 W/m 11,8 km/h (2 Bft) 95,72 %
22.05.2021 01:00 10,2 C 9,4 C 7,8 C 83 % 1002,2 hPa 0,0 l/m 0,00 h 0,00 h 0 W/m 18,9 km/h (3 Bft) 98,43 %
22.05.2021 02:00 10,5 C 9,9 C 7,8 C 79 % 1001,8 hPa 0,0 l/m 0,00 h 0,00 h 0 W/m 24,8 km/h (4 Bft) 99,07 %
22.05.2021 03:00 10,1 C 9,2 C 7,4 C 79 % 1001,5 hPa 0,0 l/m 0,00 h 0,00 h 0 W/m 20,3 km/h (4 Bft) 95,94 %
22.05.2021 04:00 9,9 C 9,3 C 7,3 C 80 % 1001,4 hPa 0,0 l/m 0,00 h 0,00 h 0 W/m 21,7 km/h (4 Bft) 97,57 %
22.05.2021 05:00 10,1 C 9,4 C 7,4 C 79 % 1001,2 hPa 0,0 l/m 0,00 h 0,00 h 7 W/m 30,4 km/h (5 Bft) 99,15 %
22.05.2021 06:00 10,6 C 10,0 C 7,8 C 80 % 1001,2 hPa 0,0 l/m 0,30 h 0,00 h 39 W/m 33,7 km/h (5 Bft) 96,61 %
22.05.2021 07:00 10,8 C 10,4 C 8,2 C 80 % 1001,2 hPa 0,0 l/m 0,00 h 0,23 h 63 W/m 37,0 km/h (5 Bft) 97,93 %
22.05.2021 08:00 10,6 C 10,0 C 7,1 C 83 % 1001,5 hPa 0,2 l/m 0,00 h 0,93 h 72 W/m 39,8 km/h (6 Bft) 97,07 %
22.05.2021 09:00 10,8 C 10,4 C 8,0 C 83 % 1001,9 hPa 0,0 l/m 0,00 h 0,43 h 102 W/m 40,9 km/h (6 Bft) 96,44 %
22.05.2021 10:00 10,2 C 9,5 C 6,9 C 89 % 1002,4 hPa 0,4 l/m 0,00 h 1,00 h 101 W/m 34,8 km/h (5 Bft) 97,11 %
22.05.2021 11:00 11,1 C 11,2 C 8,3 C 88 % 1002,6 hPa 0,0 l/m 0,23 h 0,40 h 307 W/m 36,4 km/h (5 Bft) 98,43 %
22.05.2021 12:00 11,5 C 11,4 C 9,0 C 87 % 1003,3 hPa 0,0 l/m 0,00 h 1,00 h 246 W/m 35,1 km/h (5 Bft) 95,28 %
22.05.2021 13:00 11,9 C 12,0 C 9,8 C 87 % 1003,8 hPa 0,0 l/m 0,03 h 0,80 h 309 W/m 41,4 km/h (6 Bft) 98,35 %
22.05.2021 14:00 12,2 C 11,9 C 9,6 C 87 % 1004,6 hPa 0,2 l/m 0,00 h 0,87 h 184 W/m 30,5 km/h (5 Bft) 96,83 %
22.05.2021 15:00 11,5 C 11,0 C 8,7 C 91 % 1005,4 hPa 0,6 l/m 0,00 h 1,00 h 154 W/m 22,8 km/h (4 Bft) 98,30 %
22.05.2021 16:00 11,3 C 10,8 C 8,6 C 92 % 1006,1 hPa 0,4 l/m 0,03 h 0,97 h 188 W/m 23,0 km/h (4 Bft) 97,09 %
22.05.2021 17:00 11,7 C 12,1 C 9,2 C 91 % 1006,9 hPa 0,0 l/m 0,10 h 0,03 h 249 W/m 16,6 km/h (3 Bft) 93,88 %
22.05.2021 18:00 11,8 C 11,6 C 9,0 C 90 % 1007,4 hPa 0,0 l/m 0,00 h 0,00 h 128 W/m 16,7 km/h (3 Bft) 98,41 %
22.05.2021 19:00 12,0 C 12,0 C 9,5 C 89 % 1007,8 hPa 0,0 l/m 0,33 h 0,00 h 128 W/m 15,4 km/h (3 Bft) 96,66 %
22.05.2021 20:00 11,5 C 10,9 C 9,0 C 90 % 1007,9 hPa 0,0 l/m 0,00 h 0,43 h 27 W/m 13,7 km/h (3 Bft) 97,36 %
22.05.2021 21:00 10,9 C 10,2 C 8,7 C 93 % 1008,4 hPa 1,0 l/m 0,00 h 0,20 h 5 W/m 11,3 km/h (2 Bft) 96,59 %
22.05.2021 22:00 10,4 C 9,2 C 7,8 C 95 % 1008,9 hPa 0,8 l/m 0,00 h 0,47 h 0 W/m 6,3 km/h (2 Bft) 96,86 %
22.05.2021 23:00 10,0 C 9,3 C 7,8 C 96 % 1009,0 hPa 0,0 l/m 0,00 h 0,00 h 0 W/m 7,6 km/h (2 Bft) 97,15 %
23.05.2021 00:00 9,7 C 8,9 C 7,3 C 96 % 1009,3 hPa 0,0 l/m 0,00 h 0,00 h 0 W/m 12,6 km/h (3 Bft) 98,24 %
23.05.2021 01:00 9,5 C 8,9 C 7,3 C 95 % 1009,7 hPa 0,2 l/m 0,00 h 0,17 h 0 W/m 9,7 km/h (2 Bft) 99,71 %
23.05.2021 02:00 9,4 C 8,5 C 7,3 C 95 % 1009,8 hPa 0,4 l/m 0,00 h 0,87 h 0 W/m 9,8 km/h (2 Bft) 96,64 %
23.05.2021 03:00 9,2 C 8,3 C 7,3 C 97 % 1010,0 hPa 0,2 l/m 0,00 h 0,63 h 0 W/m 6,5 km/h (2 Bft) 98,81 %
23.05.2021 04:00 9,2 C 8,3 C 7,3 C 97 % 1010,1 hPa 0,2 l/m 0,00 h 0,23 h 0 W/m 6,3 km/h (2 Bft) 97,51 %
23.05.2021 05:00 9,2 C 8,5 C 7,5 C 98 % 1010,6 hPa 0,2 l/m 0,00 h 0,13 h 4 W/m 8,7 km/h (2 Bft) 94,23 %
23.05.2021 06:00 9,4 C 8,9 C 7,8 C 98 % 1011,2 hPa 0,2 l/m 0,00 h 0,17 h 10 W/m 11,7 km/h (2 Bft) 97,73 %
23.05.2021 07:00 9,4 C 8,9 C 7,7 C 98 % 1011,9 hPa 0,0 l/m 0,00 h 0,00 h 37 W/m 19,6 km/h (3 Bft) 98,93 %
23.05.2021 08:00 9,5 C 10,0 C 8,1 C 96 % 1012,5 hPa 0,0 l/m 0,20 h 0,00 h 182 W/m 22,5 km/h (4 Bft) 96,94 %
23.05.2021 09:00 11,3 C 14,3 C 10,9 C 84 % 1013,1 hPa 0,0 l/m 0,93 h 0,00 h 555 W/m 22,1 km/h (4 Bft) 99,29 %
23.05.2021 10:00 12,4 C 13,8 C 13,6 C 73 % 1013,7 hPa 0,0 l/m 0,70 h 0,00 h 558 W/m 22,8 km/h (4 Bft) 97,68 %
23.05.2021 11:00 13,2 C 14,2 C 12,5 C 68 % 1014,3 hPa 0,2 l/m 0,47 h 0,00 h 486 W/m 25,1 km/h (4 Bft) 96,23 %
23.05.2021 12:00 13,9 C 14,8 C 15,8 C 66 % 1014,8 hPa 0,0 l/m 0,40 h 0,00 h 463 W/m 24,4 km/h (4 Bft) 97,04 %
23.05.2021 13:00 14,9 C 16,1 C 17,0 C 60 % 1014,9 hPa 0,0 l/m 0,43 h 0,00 h 585 W/m 21,7 km/h (4 Bft) 97,84 %
23.05.2021 14:00 15,5 C 16,7 C 13,7 C 58 % 1014,8 hPa 0,0 l/m 0,57 h 0,00 h 465 W/m 22,4 km/h (4 Bft) 96,86 %
23.05.2021 15:00 16,1 C 17,8 C 14,1 C 58 % 1014,7 hPa 0,0 l/m 0,67 h 0,00 h 603 W/m 20,0 km/h (4 Bft) 99,29 %
23.05.2021 16:00 16,7 C 18,5 C 14,5 C 56 % 1014,7 hPa 0,0 l/m 0,87 h 0,00 h 572 W/m 23,7 km/h (4 Bft) 96,17 %
23.05.2021 17:00 16,4 C 17,3 C 14,0 C 57 % 1014,5 hPa 0,0 l/m 0,67 h 0,00 h 341 W/m 20,7 km/h (4 Bft) 95,51 %
23.05.2021 18:00 16,0 C 16,5 C 13,5 C 59 % 1014,2 hPa 0,0 l/m 0,73 h 0,00 h 235 W/m 21,5 km/h (4 Bft) 96,11 %
23.05.2021 19:00 15,8 C 15,6 C 12,9 C 61 % 1014,0 hPa 0,0 l/m 0,30 h 0,00 h 122 W/m 14,3 km/h (3 Bft) 97,36 %
23.05.2021 20:00 15,5 C 14,6 C 12,2 C 61 % 1013,7 hPa 0,0 l/m 0,10 h 0,00 h 56 W/m 12,7 km/h (3 Bft) 97,15 %
23.05.2021 21:00 14,3 C 12,9 C 10,6 C 65 % 1013,8 hPa 0,0 l/m 0,00 h 0,00 h 12 W/m 5,1 km/h (1 Bft) 96,52 %
23.05.2021 22:00 12,9 C 11,8 C 9,6 C 70 % 1013,8 hPa 0,0 l/m 0,00 h 0,00 h 0 W/m 7,3 km/h (2 Bft) 97,87 %
23.05.2021 23:00 12,2 C 11,4 C 9,1 C 70 % 1013,5 hPa 0,0 l/m 0,00 h 0,00 h 0 W/m 7,7 km/h (2 Bft) 99,86 %
Min-Datum _ 20.05.21 20.05.21 19.05.21 21.05.21 22.05.21 - - - - 17.05.21 17.05.21
_ Min-Zeit 05:56 05:54 04:08 16:52 07:12 - - - - 22:52 00:02
Minimum _ 7,4 C 6,1 C 5,6 C 45 % 1001,0 hPa - - - - 0,0 km/h (0 Bft) 14,29 %
Max-Datum _ 21.05.21 21.05.21 19.05.21 20.05.21 20.05.21 18.05.21 18.05.21 21.05.21 21.05.21 21.05.21 17.05.21
_ Max-Zeit 16:24 16:10 12:56 08:30 09:52 17:04 12:08 18:08 13:38 18:08 00:54
Maximum _ 19,2 C 22,8 C 27,8 C 100 % 1022,0 hPa 5,2 l/m 0,07 h 0,07 h 1163 W/m 93,3 km/h
S (10 Bft)
100,00 %
Durchschnitt _ 12,4 C 12,3 C 10,3 C 82 % 1010,5 hPa #23,8 l/m #34:24 h #19:33 h 262 W/m 15,0 km/h (3 Bft) 96,98 %
© 2021 W. Hausmann